createdAt,value
2022-11-02T00:01:58.529Z,100018.75
2022-11-02T00:04:46.037Z,100024.56
2022-11-02T00:07:34.794Z,100018.31
2022-11-02T00:10:23.429Z,100018.75
2022-11-02T00:13:11.034Z,100012.41
2022-11-02T00:15:58.381Z,100020.69
2022-11-02T00:18:48.893Z,100006.06
2022-11-02T00:21:37.918Z,100022.84
2022-11-02T00:24:26.809Z,100022.41
2022-11-02T00:27:14.355Z,100017.53
2022-11-02T00:30:02.273Z,100022.06
2022-11-02T00:32:51.859Z,100023.88
2022-11-02T00:35:40.506Z,100021.06
2022-11-02T00:38:27.943Z,100017.63
2022-11-02T00:41:16.787Z,100007.44
2022-11-02T00:44:04.475Z,100016.28
2022-11-02T00:46:51.744Z,100013.69
2022-11-02T00:49:39.452Z,100008.69
2022-11-02T00:52:27.702Z,100011.50
2022-11-02T00:55:15.474Z,100011.72
2022-11-02T00:58:06.986Z,100007.56
2022-11-02T01:00:56.559Z,100003.09
2022-11-02T01:03:44.090Z,100004.94
2022-11-02T01:06:31.746Z,99999.50
2022-11-02T01:09:19.721Z,100002.09
2022-11-02T01:12:07.989Z,99993.84
2022-11-02T01:14:56.563Z,99998.03
2022-11-02T01:17:44.559Z,99999.81
2022-11-02T01:20:31.951Z,99993.34
2022-11-02T01:23:19.220Z,99993.13
2022-11-02T01:26:07.799Z,99977.25
2022-11-02T01:28:56.152Z,99982.03
2022-11-02T01:31:44.891Z,99985.22
2022-11-02T01:34:32.447Z,99983.16
2022-11-02T01:37:19.675Z,99987.38
2022-11-02T01:40:10.132Z,99985.91
2022-11-02T01:42:57.647Z,99985.44
2022-11-02T01:45:44.907Z,99985.00
2022-11-02T01:48:36.775Z,99977.72
2022-11-02T01:51:31.340Z,99987.16
2022-11-02T01:54:25.427Z,99984.28
2022-11-02T01:57:17.853Z,99992.13
2022-11-02T02:00:10.905Z,99989.06
2022-11-02T02:03:07.884Z,99985.22
2022-11-02T02:06:03.058Z,99985.53
2022-11-02T02:08:52.568Z,99985.53
2022-11-02T02:11:42.466Z,99979.50
2022-11-02T02:14:29.907Z,99985.09
2022-11-02T02:17:33.759Z,99970.56
2022-11-02T02:20:40.992Z,99974.50
2022-11-02T02:24:01.679Z,99972.47
2022-11-02T02:27:11.034Z,99968.06
2022-11-02T02:30:07.596Z,99964.75
2022-11-02T02:32:59.507Z,99965.09
2022-11-02T02:35:58.187Z,99961.78
2022-11-02T02:38:53.409Z,99968.59
2022-11-02T02:41:46.325Z,99964.63
2022-11-02T02:44:37.812Z,99971.66
2022-11-02T02:47:32.426Z,99967.47
2022-11-02T02:50:25.550Z,99965.53
2022-11-02T02:53:16.876Z,99962.13
2022-11-02T02:56:06.737Z,99957.94
2022-11-02T02:59:01.327Z,99961.22
2022-11-02T03:01:51.120Z,99953.09
2022-11-02T03:04:40.290Z,99950.25
2022-11-02T03:07:33.912Z,99952.84
2022-11-02T03:10:32.511Z,99953.63
2022-11-02T03:13:37.184Z,99951.03
2022-11-02T03:16:43.800Z,99944.78
2022-11-02T03:19:51.379Z,99955.34
2022-11-02T03:22:54.081Z,99943.16
2022-11-02T03:25:54.367Z,99951.91
2022-11-02T03:28:57.547Z,99952.06
2022-11-02T03:31:50.893Z,99950.78
2022-11-02T03:34:45.118Z,99948.41
2022-11-02T03:37:38.832Z,99954.75
2022-11-02T03:40:32.182Z,99949.53
2022-11-02T03:43:21.883Z,99956.81
2022-11-02T03:46:14.509Z,99954.75
2022-11-02T03:49:06.064Z,99952.72
2022-11-02T03:52:04.746Z,99954.63
2022-11-02T03:55:01.878Z,99946.13
2022-11-02T03:57:52.052Z,99943.59
2022-11-02T04:03:42.209Z,99958.78
2022-11-02T04:06:29.952Z,99954.50
2022-11-02T04:09:40.045Z,99963.13
2022-11-02T04:12:45.783Z,99959.88
2022-11-02T04:15:36.417Z,99962.69
2022-11-02T04:18:42.167Z,99970.53
2022-11-02T04:21:31.322Z,99983.59
2022-11-02T04:24:53.302Z,99991.22
2022-11-02T04:27:42.484Z,99994.50
2022-11-02T04:30:31.186Z,99998.16
2022-11-02T04:33:36.078Z,100013.38
2022-11-02T04:36:52.331Z,100007.78
2022-11-02T04:39:38.986Z,100004.94
2022-11-02T04:42:27.448Z,99996.09
2022-11-02T04:45:20.675Z,99998.25
2022-11-02T04:48:30.929Z,100009.50
2022-11-02T04:51:20.725Z,100002.91
2022-11-02T04:54:08.714Z,100008.91
2022-11-02T05:00:28.464Z,99996.66
2022-11-02T05:03:16.889Z,100010.25
2022-11-02T05:06:32.115Z,100012.88
2022-11-02T05:09:22.293Z,100026.50
2022-11-02T05:12:30.803Z,100019.25
2022-11-02T05:15:21.035Z,100012.41
2022-11-02T05:28:53.081Z,100014.94
2022-11-02T05:34:46.372Z,100040.47
2022-11-02T05:42:30.146Z,100035.59
2022-11-02T05:46:23.501Z,100045.25
2022-11-02T05:49:39.449Z,100042.41
2022-11-02T05:57:57.262Z,100049.00
2022-11-02T06:03:34.249Z,100063.44
2022-11-02T06:06:25.527Z,100063.44
2022-11-02T06:13:28.343Z,100077.72
2022-11-02T06:16:22.410Z,100085.13
2022-11-02T06:20:07.776Z,100089.78
2022-11-02T06:28:10.941Z,100104.31
2022-11-02T06:31:04.118Z,100103.31
2022-11-02T06:33:51.853Z,100110.91
2022-11-02T06:36:39.698Z,100104.88
2022-11-02T06:39:28.046Z,100112.72
2022-11-02T06:46:48.023Z,100119.66
2022-11-02T06:49:37.056Z,100126.00
2022-11-02T06:53:30.563Z,100133.03
2022-11-02T06:56:41.313Z,100132.59
2022-11-02T07:03:24.957Z,100142.13
2022-11-02T07:06:14.421Z,100156.31
2022-11-02T07:08:44.027Z,100156.09
2022-11-02T07:16:07.993Z,100154.41
2022-11-02T07:18:59.187Z,100164.84
2022-11-02T07:21:35.873Z,100172.25
2022-11-02T07:28:10.544Z,100182.59
2022-11-02T07:30:50.172Z,100181.56
2022-11-02T07:33:19.329Z,100173.59
2022-11-02T07:35:49.864Z,100190.19
2022-11-02T07:39:22.542Z,100183.13
2022-11-02T07:41:52.256Z,100191.41
2022-11-02T07:44:21.419Z,100186.75
2022-11-02T07:47:00.338Z,100187.31
2022-11-02T07:49:29.617Z,100188.09
2022-11-02T07:52:00.615Z,100197.25
2022-11-02T07:54:29.842Z,100199.09
2022-11-02T07:56:59.294Z,100199.41
2022-11-02T07:59:28.495Z,100215.06
2022-11-02T08:01:57.776Z,100203.47
2022-11-02T08:04:27.278Z,100223.34
2022-11-02T08:07:00.787Z,100225.09
2022-11-02T08:09:30.066Z,100223.97
2022-11-02T08:12:04.714Z,100235.56
2022-11-02T08:14:35.645Z,100227.56
2022-11-02T08:17:05.196Z,100227.91
2022-11-02T08:19:36.800Z,100226.28
2022-11-02T08:22:07.746Z,100234.63
2022-11-02T08:24:36.953Z,100232.78
2022-11-02T08:27:06.879Z,100235.06
2022-11-02T08:29:36.987Z,100228.91
2022-11-02T08:32:07.196Z,100238.72
2022-11-02T08:34:36.896Z,100232.75
2022-11-02T08:37:10.449Z,100233.16
2022-11-02T08:39:39.816Z,100239.97
2022-11-02T08:42:09.639Z,100230.66
2022-11-02T08:44:42.509Z,100232.34
2022-11-02T08:47:12.364Z,100235.03
2022-11-02T08:49:41.931Z,100235.09
2022-11-02T08:52:12.994Z,100242.34
2022-11-02T08:54:42.841Z,100241.06
2022-11-02T08:57:12.574Z,100246.66
2022-11-02T08:59:42.376Z,100234.31
2022-11-02T09:02:12.355Z,100237.00
2022-11-02T09:04:42.162Z,100241.47
2022-11-02T09:07:21.292Z,100238.59
2022-11-02T09:09:51.393Z,100240.75
2022-11-02T09:12:21.970Z,100243.75
2022-11-02T09:14:51.505Z,100243.50
2022-11-02T09:17:20.983Z,100231.91
2022-11-02T09:19:50.571Z,100245.16
2022-11-02T09:22:21.388Z,100233.56
2022-11-02T09:24:50.570Z,100239.97
2022-11-02T09:27:19.791Z,100233.09
2022-11-02T09:29:49.176Z,100239.41
2022-11-02T09:32:19.015Z,100229.34
2022-11-02T09:34:50.645Z,100236.22
2022-11-02T09:37:21.784Z,100245.16
2022-11-02T09:39:51.437Z,100231.38
2022-11-02T09:42:28.090Z,100224.94
2022-11-02T09:45:02.983Z,100246.03
2022-11-02T09:48:14.775Z,100240.06
2022-11-02T09:50:41.473Z,100250.31
2022-11-02T09:53:19.272Z,100250.03
2022-11-02T09:55:53.462Z,100258.44
2022-11-02T09:58:31.523Z,100251.25
2022-11-02T10:01:13.347Z,100256.75
2022-11-02T10:04:04.280Z,100261.84
2022-11-02T10:06:36.951Z,100265.56
2022-11-02T10:09:15.011Z,100264.94
2022-11-02T10:11:56.272Z,100253.81
2022-11-02T10:14:31.453Z,100267.28
2022-11-02T10:17:16.960Z,100259.34
2022-11-02T10:19:52.358Z,100249.31
2022-11-02T10:22:25.917Z,100249.84
2022-11-02T10:24:58.571Z,100250.97
2022-11-02T10:27:31.984Z,100251.22
2022-11-02T10:30:08.860Z,100253.22
2022-11-02T10:32:41.144Z,100255.63
2022-11-02T10:35:41.152Z,100265.19
2022-11-02T10:38:30.628Z,100251.78
2022-11-02T10:41:17.706Z,100248.84
2022-11-02T10:44:16.626Z,100235.13
2022-11-02T10:47:00.513Z,100242.75
2022-11-02T10:50:14.512Z,100247.97
2022-11-02T10:52:47.326Z,100252.34
2022-11-02T10:55:27.683Z,100249.13
2022-11-02T10:58:02.533Z,100251.16
2022-11-02T11:00:35.414Z,100253.56
2022-11-02T11:03:11.546Z,100262.81
2022-11-02T11:05:59.313Z,100251.06
2022-11-02T11:08:39.250Z,100251.06
2022-11-02T11:11:21.185Z,100248.34
2022-11-02T11:19:52.840Z,100239.25
2022-11-02T11:22:30.397Z,100228.69
2022-11-02T11:25:27.951Z,100225.72
2022-11-02T11:28:00.047Z,100228.19
2022-11-02T11:30:58.300Z,100234.06
2022-11-02T11:33:24.268Z,100221.91
2022-11-02T11:35:54.290Z,100223.28
2022-11-02T11:38:27.546Z,100220.31
2022-11-02T11:41:00.462Z,100220.63
2022-11-02T11:43:37.780Z,100225.59
2022-11-02T11:46:12.077Z,100239.25
2022-11-02T11:48:43.894Z,100221.84
2022-11-02T11:51:31.934Z,100212.50
2022-11-02T11:54:24.479Z,100223.25
2022-11-02T11:56:57.264Z,100219.84
2022-11-02T11:59:33.673Z,100225.16
2022-11-02T12:02:22.570Z,100219.00
2022-11-02T12:04:54.083Z,100210.59
2022-11-02T12:08:12.400Z,100202.69
2022-11-02T12:11:17.792Z,100201.81
2022-11-02T12:14:10.897Z,100206.91
2022-11-02T12:17:06.568Z,100214.50
2022-11-02T12:19:58.308Z,100208.13
2022-11-02T12:22:42.974Z,100206.47
2022-11-02T12:25:32.995Z,100203.81
2022-11-02T12:28:20.998Z,100219.16
2022-11-02T12:31:03.357Z,100201.50
2022-11-02T12:33:51.611Z,100215.13
2022-11-02T12:36:55.293Z,100215.22
2022-11-02T12:39:43.490Z,100203.81
2022-11-02T12:42:28.434Z,100198.16
2022-11-02T12:45:16.541Z,100193.81
2022-11-02T12:48:00.036Z,100197.41
2022-11-02T12:50:53.561Z,100213.50
2022-11-02T12:53:45.620Z,100198.25
2022-11-02T12:56:22.664Z,100205.13
2022-11-02T12:58:54.846Z,100193.50
2022-11-02T13:01:29.747Z,100185.31
2022-11-02T13:04:11.436Z,100184.28
2022-11-02T13:06:46.026Z,100201.97
2022-11-02T13:09:23.839Z,100195.06
2022-11-02T13:12:01.635Z,100191.63
2022-11-02T13:14:41.010Z,100199.28
2022-11-02T13:17:17.163Z,100189.78
2022-11-02T13:19:51.431Z,100182.91
2022-11-02T13:22:29.799Z,100186.91
2022-11-02T13:25:08.132Z,100186.09
2022-11-02T13:27:47.547Z,100182.16
2022-11-02T13:30:19.724Z,100157.63
2022-11-02T13:32:57.970Z,100179.47
2022-11-02T13:35:35.686Z,100173.44
2022-11-02T13:38:20.897Z,100174.47
2022-11-02T13:40:59.488Z,100189.25
2022-11-02T13:44:00.088Z,100168.66
2022-11-02T13:47:01.910Z,100183.94
2022-11-02T13:49:36.645Z,100187.09
2022-11-02T13:52:14.898Z,100182.38
2022-11-02T13:54:51.397Z,100179.69
2022-11-02T13:57:33.715Z,100165.41
2022-11-02T14:00:08.112Z,100167.72
2022-11-02T14:02:43.168Z,100165.91
2022-11-02T14:05:27.380Z,100156.41
2022-11-02T14:08:02.478Z,100161.66
2022-11-02T14:10:38.134Z,100150.03
2022-11-02T14:13:11.506Z,100158.41
2022-11-02T14:15:43.820Z,100171.59
2022-11-02T14:18:31.308Z,100166.59
2022-11-02T14:21:43.592Z,100162.84
2022-11-02T14:24:54.434Z,100160.91
2022-11-02T14:27:38.556Z,100165.31
2022-11-02T14:30:46.669Z,100157.63
2022-11-02T14:33:54.354Z,100160.03
2022-11-02T14:36:51.243Z,100169.75
2022-11-02T14:39:30.248Z,100167.69
2022-11-02T14:42:32.024Z,100165.56
2022-11-02T14:45:20.653Z,100159.28
2022-11-02T14:48:01.155Z,100154.78
2022-11-02T14:50:30.784Z,100131.88
2022-11-02T14:53:05.406Z,100139.25
2022-11-02T14:55:38.019Z,100134.72
2022-11-02T14:58:15.481Z,100133.13
2022-11-02T15:01:00.097Z,100147.31
2022-11-02T15:03:38.959Z,100139.69
2022-11-02T15:06:18.143Z,100141.00
2022-11-02T15:08:54.739Z,100161.53
2022-11-02T15:11:48.335Z,100139.69
2022-11-02T15:15:00.374Z,100141.25
2022-11-02T15:18:17.275Z,100136.47
2022-11-02T15:20:48.262Z,100133.78
2022-11-02T15:23:31.061Z,100135.91
2022-11-02T15:26:02.056Z,100128.78
2022-11-02T15:28:35.979Z,100129.53
2022-11-02T15:31:16.320Z,100135.03
2022-11-02T15:33:50.307Z,100131.16
2022-11-02T15:36:30.291Z,100138.53
2022-11-02T15:39:03.162Z,100129.53
2022-11-02T15:41:41.390Z,100131.16
2022-11-02T15:44:37.282Z,100126.91
2022-11-02T15:47:19.512Z,100137.69
2022-11-02T15:50:31.729Z,100135.59
2022-11-02T15:53:58.187Z,100126.31
2022-11-02T15:56:51.055Z,100134.94
2022-11-02T15:59:52.214Z,100123.09
2022-11-02T16:02:28.866Z,100117.78
2022-11-02T16:05:02.244Z,100110.94
2022-11-02T16:07:50.283Z,100110.38
2022-11-02T16:10:27.920Z,100116.69
2022-11-02T16:13:17.054Z,100121.88
2022-11-02T16:15:49.015Z,100107.88
2022-11-02T16:18:27.318Z,100127.28
2022-11-02T16:21:02.115Z,100125.88
2022-11-02T16:23:36.354Z,100112.13
2022-11-02T16:26:09.564Z,100117.88
2022-11-02T16:28:40.116Z,100114.13
2022-11-02T16:31:19.404Z,100112.56
2022-11-02T16:33:51.807Z,100114.59
2022-11-02T16:36:24.257Z,100115.88
2022-11-02T16:39:01.052Z,100119.56
2022-11-02T16:41:32.952Z,100116.59
2022-11-02T16:44:09.830Z,100117.34
2022-11-02T16:46:44.230Z,100116.56
2022-11-02T16:49:19.609Z,100120.69
2022-11-02T16:51:54.349Z,100108.81
2022-11-02T16:54:41.316Z,100110.59
2022-11-02T16:57:20.427Z,100120.31
2022-11-02T16:59:54.219Z,100119.22
2022-11-02T17:02:34.519Z,100114.94
2022-11-02T17:05:06.669Z,100119.88
2022-11-02T17:07:40.418Z,100110.38
2022-11-02T17:10:21.652Z,100101.38
2022-11-02T17:12:51.579Z,100100.84
2022-11-02T17:15:23.382Z,100102.63
2022-11-02T17:18:17.352Z,100094.41
2022-11-02T17:20:46.693Z,100103.81
2022-11-02T17:23:36.469Z,100100.56
2022-11-02T17:26:34.413Z,100102.63
2022-11-02T17:29:20.276Z,100093.63
2022-11-02T17:31:58.645Z,100108.91
2022-11-02T17:34:28.265Z,100100.16
2022-11-02T17:36:57.616Z,100106.41
2022-11-02T17:39:26.828Z,100106.84
2022-11-02T17:42:19.173Z,100107.00
2022-11-02T17:44:48.599Z,100102.66
2022-11-02T17:47:19.911Z,100102.06
2022-11-02T17:49:49.043Z,100124.53
2022-11-02T17:52:18.234Z,100118.44
2022-11-02T17:54:47.340Z,100113.34
2022-11-02T17:57:19.169Z,100120.19
2022-11-02T17:59:48.357Z,100104.84
2022-11-02T18:02:17.634Z,100109.00
2022-11-02T18:04:47.135Z,100124.56
2022-11-02T18:07:16.544Z,100115.81
2022-11-02T18:09:45.656Z,100110.81
2022-11-02T18:12:15.617Z,100094.00
2022-11-02T18:14:46.293Z,100112.34
2022-11-02T18:17:15.490Z,100111.06
2022-11-02T18:19:44.620Z,100103.88
2022-11-02T18:22:15.549Z,100094.69
2022-11-02T18:24:44.985Z,100092.75
2022-11-02T18:27:14.504Z,100094.75
2022-11-02T18:29:45.028Z,100120.75
2022-11-02T18:32:14.214Z,100099.34
2022-11-02T18:34:43.395Z,100104.22
2022-11-02T18:37:12.526Z,100097.88
2022-11-02T18:39:41.797Z,100097.81
2022-11-02T18:42:10.946Z,100083.34
2022-11-02T18:44:40.122Z,100087.25
2022-11-02T18:47:10.733Z,100083.03
2022-11-02T18:49:39.961Z,100084.09
2022-11-02T18:52:09.495Z,100092.84
2022-11-02T18:54:38.660Z,100087.28
2022-11-02T18:57:07.849Z,100079.59
2022-11-02T18:59:37.057Z,100090.06
2022-11-02T19:02:11.177Z,100090.59
2022-11-02T19:04:40.545Z,100083.72
2022-11-02T19:07:28.323Z,100087.25
2022-11-02T19:10:03.286Z,100086.56
2022-11-02T19:12:33.045Z,100090.03
2022-11-02T19:15:02.210Z,100086.75
2022-11-02T19:17:32.694Z,100082.22
2022-11-02T19:20:01.836Z,100080.28
2022-11-02T19:22:31.042Z,100079.25
2022-11-02T19:25:01.222Z,100082.88
2022-11-02T19:27:30.554Z,100076.78
2022-11-02T19:30:00.007Z,100075.72
2022-11-02T19:32:51.203Z,100081.41
2022-11-02T19:35:24.446Z,100080.66
2022-11-02T19:38:02.847Z,100078.25
2022-11-02T19:40:35.163Z,100076.09
2022-11-02T19:46:27.583Z,100080.31
2022-11-02T19:52:29.865Z,100070.00
2022-11-02T19:58:46.786Z,100058.44
2022-11-02T20:02:01.829Z,100065.59
2022-11-02T20:04:42.203Z,100057.66
2022-11-02T20:10:32.257Z,100050.16
2022-11-02T20:19:27.501Z,100037.41
2022-11-02T20:22:14.205Z,100042.63
2022-11-02T20:25:20.349Z,100035.81
2022-11-02T20:28:11.540Z,100031.06
2022-11-02T20:31:08.236Z,100040.47
2022-11-02T20:34:01.638Z,100039.91
2022-11-02T20:36:31.461Z,100038.34
2022-11-02T20:39:23.713Z,100036.03
2022-11-02T20:41:55.953Z,100023.78
2022-11-02T20:44:25.326Z,100032.75
2022-11-02T20:46:54.493Z,100041.03
2022-11-02T20:49:50.152Z,100035.25
2022-11-02T20:53:09.040Z,100032.66
2022-11-02T21:02:57.346Z,100030.59
2022-11-02T21:06:02.148Z,100028.44
2022-11-02T21:08:54.366Z,100021.59
2022-11-02T21:12:16.441Z,100028.66
2022-11-02T21:15:19.480Z,100027.75
2022-11-02T21:18:11.133Z,100025.59
2022-11-02T21:21:12.647Z,100006.41
2022-11-02T21:24:10.958Z,100016.81
2022-11-02T21:27:25.914Z,100007.28
2022-11-02T21:30:14.280Z,100001.03
2022-11-02T21:33:01.819Z,100000.47
2022-11-02T21:35:49.793Z,99988.66
2022-11-02T21:38:38.381Z,99990.06
2022-11-02T21:41:29.006Z,99995.53
2022-11-02T21:44:18.350Z,99999.63
2022-11-02T21:47:06.284Z,99980.88
2022-11-02T21:49:53.823Z,99978.94
2022-11-02T21:52:45.158Z,99972.59
2022-11-02T21:55:34.330Z,99981.06
2022-11-02T21:58:23.335Z,99976.28
2022-11-02T22:01:34.462Z,99984.47
2022-11-02T22:04:31.196Z,99979.13
2022-11-02T22:07:27.381Z,99971.19
2022-11-02T22:10:19.182Z,99980.25
2022-11-02T22:13:26.353Z,99986.91
2022-11-02T22:16:18.892Z,99985.53
2022-11-02T22:19:11.595Z,99989.75
2022-11-02T22:22:00.257Z,99987.69
2022-11-02T22:24:48.307Z,99975.13
2022-11-02T22:27:36.102Z,99976.94
2022-11-02T22:30:30.762Z,99966.38
2022-11-02T22:33:23.777Z,99966.97
2022-11-02T22:36:25.500Z,99966.53
2022-11-02T22:39:27.704Z,99955.88
2022-11-02T22:45:30.042Z,99945.47
2022-11-02T22:48:20.078Z,99949.06
2022-11-02T22:51:08.497Z,99930.69
2022-11-02T22:53:56.402Z,99927.84
2022-11-02T22:56:48.342Z,99928.28
2022-11-02T22:59:53.443Z,99931.53
2022-11-02T23:02:43.584Z,99928.00
2022-11-02T23:06:22.004Z,99936.47
2022-11-02T23:09:28.365Z,99925.28
2022-11-02T23:15:43.490Z,99913.97
2022-11-02T23:22:20.908Z,99908.31
2022-11-02T23:25:33.363Z,99913.53
2022-11-02T23:28:38.385Z,99915.56
2022-11-02T23:31:43.536Z,99903.66
2022-11-02T23:34:31.292Z,99896.06
2022-11-02T23:37:19.485Z,99897.63
2022-11-02T23:40:12.451Z,99896.06
2022-11-02T23:43:13.913Z,99895.25
2022-11-02T23:46:02.109Z,99902.28
2022-11-02T23:48:53.727Z,99900.69
2022-11-02T23:52:12.776Z,99898.06
2022-11-02T23:55:30.677Z,99902.13
